Terminal Aerodrome Forecast
Issued by NWS Lake Charles, LA

Home | Current Version | Previous Version | Text Only | Print | Product List | Glossary On
Versions: 1 2 3 4 5 6 7 8 9 10 11 12 13 14 15 16 17 18 19 20 21 22 23
000
FTUS44 KLCH 281700
TAFBPT
TAF
KBPT 281720Z 2818/2918 36007KT P6SM -SHRA OVC007
      TEMPO 2819/2823 5SM SHRA OVC004
     FM290300 01005KT 4SM BR OVC004
     FM290900 02004KT 1SM BR OVC003
     FM291500 03004KT P6SM OVC007=

USA.gov is the U.S. government's official web portal to all federal, state and local government web resources and services.